createdAt,value
2023-01-30T00:00:16.733Z,8.12
2023-01-30T00:05:37.424Z,7.47
2023-01-30T00:10:59.036Z,6.81
2023-01-30T00:16:22.762Z,8.25
2023-01-30T00:21:46.492Z,8.00
2023-01-30T00:27:11.501Z,7.60
2023-01-30T00:32:36.686Z,7.99
2023-01-30T00:37:58.941Z,7.93
2023-01-30T00:43:20.080Z,7.95
2023-01-30T00:48:45.447Z,8.65
2023-01-30T00:54:09.650Z,7.77
2023-01-30T00:59:55.810Z,8.60
2023-01-30T01:05:19.714Z,7.65
2023-01-30T01:10:44.234Z,8.50
2023-01-30T01:16:08.659Z,8.06
2023-01-30T01:21:32.796Z,8.22
2023-01-30T01:26:57.022Z,8.72
2023-01-30T01:32:22.917Z,7.58
2023-01-30T01:37:43.968Z,7.77
2023-01-30T01:43:06.929Z,8.48
2023-01-30T01:48:31.879Z,7.35
2023-01-30T01:54:17.476Z,8.32
2023-01-30T01:59:40.402Z,7.75
2023-01-30T02:05:04.733Z,7.89
2023-01-30T02:10:28.972Z,7.65
2023-01-30T02:15:50.017Z,7.42
2023-01-30T02:21:11.229Z,7.14
2023-01-30T02:27:07.738Z,7.23
2023-01-30T02:32:56.304Z,7.07
2023-01-30T02:38:22.165Z,6.74
2023-01-30T02:43:48.741Z,7.06
2023-01-30T02:49:12.382Z,6.88
2023-01-30T02:54:55.157Z,7.81
2023-01-30T03:00:17.938Z,7.29
2023-01-30T03:05:38.679Z,7.59
2023-01-30T03:11:09.420Z,7.23
2023-01-30T03:16:59.787Z,7.71
2023-01-30T03:22:19.691Z,6.26
2023-01-30T03:27:42.992Z,6.69
2023-01-30T03:33:07.345Z,7.14
2023-01-30T03:38:53.151Z,7.63
2023-01-30T03:44:12.463Z,7.92
2023-01-30T03:49:35.456Z,6.48
2023-01-30T03:54:59.856Z,7.44
2023-01-30T04:00:27.144Z,7.00
2023-01-30T04:06:03.566Z,7.48
2023-01-30T04:11:24.338Z,8.03
2023-01-30T04:16:48.753Z,8.23
2023-01-30T04:22:12.568Z,8.87
2023-01-30T04:27:35.787Z,8.36
2023-01-30T04:32:57.750Z,8.60
2023-01-30T04:38:20.207Z,9.20
2023-01-30T04:43:39.414Z,9.10
2023-01-30T04:49:03.045Z,8.38
2023-01-30T04:54:37.077Z,8.15
2023-01-30T05:00:00.252Z,7.99
2023-01-30T05:05:44.750Z,8.88
2023-01-30T05:11:08.885Z,8.18
2023-01-30T05:16:33.018Z,8.61
2023-01-30T05:21:57.480Z,7.82
2023-01-30T05:27:18.887Z,7.79
2023-01-30T05:32:39.005Z,8.25
2023-01-30T05:38:02.135Z,8.44
2023-01-30T05:43:23.390Z,7.10
2023-01-30T05:48:48.496Z,7.87
2023-01-30T05:54:08.781Z,7.08
2023-01-30T05:59:32.500Z,7.35
2023-01-30T06:04:54.003Z,6.91
2023-01-30T06:10:16.617Z,6.57
2023-01-30T06:15:37.542Z,7.53
2023-01-30T06:20:59.711Z,7.12
2023-01-30T06:26:24.154Z,6.97
2023-01-30T06:31:46.751Z,6.62
2023-01-30T06:37:07.444Z,6.47
2023-01-30T06:42:28.254Z,6.85
2023-01-30T06:47:48.854Z,6.40
2023-01-30T06:53:08.134Z,6.40
2023-01-30T06:58:31.616Z,6.22
2023-01-30T07:03:54.731Z,6.34
2023-01-30T07:09:18.982Z,5.83
2023-01-30T07:14:43.195Z,5.89
2023-01-30T07:20:03.600Z,6.02
2023-01-30T07:25:50.991Z,6.54
2023-01-30T07:31:15.072Z,6.05
2023-01-30T07:37:02.175Z,6.19
2023-01-30T07:48:40.061Z,5.35
2023-01-30T07:54:04.549Z,5.73
2023-01-30T07:59:26.975Z,6.16
2023-01-30T08:04:50.567Z,6.71
2023-01-30T08:10:12.771Z,6.11
2023-01-30T08:15:35.132Z,5.76
2023-01-30T08:20:55.948Z,5.87
2023-01-30T08:26:17.303Z,6.33
2023-01-30T08:31:38.468Z,6.11
2023-01-30T08:37:01.283Z,5.99
2023-01-30T08:42:23.896Z,6.42
2023-01-30T08:47:47.094Z,5.81
2023-01-30T08:53:12.453Z,5.55
2023-01-30T08:58:33.954Z,6.11
2023-01-30T09:03:54.058Z,6.40
2023-01-30T09:09:17.141Z,6.41
2023-01-30T09:14:37.748Z,6.37
2023-01-30T09:20:18.525Z,7.05
2023-01-30T09:25:40.854Z,6.02
2023-01-30T09:31:00.423Z,6.21
2023-01-30T09:36:24.549Z,5.87
2023-01-30T09:41:49.250Z,6.13
2023-01-30T09:47:20.300Z,6.06
2023-01-30T09:52:46.629Z,5.66
2023-01-30T09:58:10.925Z,6.06
2023-01-30T10:03:33.488Z,5.67
2023-01-30T10:08:58.546Z,5.54
2023-01-30T10:14:21.505Z,5.92
2023-01-30T10:20:01.069Z,6.72
2023-01-30T10:25:36.662Z,5.27
2023-01-30T10:30:57.454Z,5.89
2023-01-30T10:36:21.978Z,5.05
2023-01-30T10:41:40.686Z,5.68
2023-01-30T10:47:04.436Z,5.35
2023-01-30T10:52:43.098Z,5.50
2023-01-30T10:58:06.641Z,4.25
2023-01-30T11:03:31.389Z,1.63
2023-01-30T11:08:54.855Z,1.51
2023-01-30T11:14:18.762Z,1.80
2023-01-30T11:19:43.077Z,1.73
2023-01-30T11:25:08.340Z,1.57
2023-01-30T11:30:32.410Z,1.84
2023-01-30T11:35:54.865Z,1.53
2023-01-30T11:41:15.672Z,1.33
2023-01-30T11:46:39.311Z,1.50
2023-01-30T11:51:59.068Z,1.29
2023-01-30T11:57:19.910Z,1.11
2023-01-30T12:02:39.438Z,1.04
2023-01-30T12:08:01.415Z,1.42
2023-01-30T12:13:33.904Z,1.34
2023-01-30T12:18:57.171Z,1.53
2023-01-30T12:24:17.994Z,1.17
2023-01-30T12:29:37.863Z,1.12
2023-01-30T12:35:01.280Z,1.35
2023-01-30T12:40:51.004Z,1.33
2023-01-30T12:46:17.044Z,1.17
2023-01-30T12:51:43.326Z,1.34
2023-01-30T12:57:11.049Z,1.31
2023-01-30T13:02:34.272Z,1.28
2023-01-30T13:08:06.271Z,1.57
2023-01-30T13:13:38.571Z,1.55
2023-01-30T13:19:31.210Z,1.87
2023-01-30T13:25:06.198Z,1.71
2023-01-30T13:30:34.905Z,1.84
2023-01-30T13:35:56.638Z,1.89
2023-01-30T13:41:22.515Z,2.04
2023-01-30T13:46:43.476Z,1.82
2023-01-30T13:52:05.577Z,1.99
2023-01-30T13:57:29.850Z,2.03
2023-01-30T14:03:00.768Z,1.96
2023-01-30T14:08:42.448Z,2.20
2023-01-30T14:14:09.149Z,2.13
2023-01-30T14:19:44.920Z,2.19
2023-01-30T14:25:17.176Z,1.87
2023-01-30T14:31:01.191Z,1.85
2023-01-30T14:36:22.577Z,2.66
2023-01-30T14:41:55.240Z,2.32
2023-01-30T14:47:45.129Z,1.87
2023-01-30T14:53:01.231Z,2.08
2023-01-30T14:58:50.717Z,1.99
2023-01-30T15:04:10.020Z,1.90
2023-01-30T15:09:32.288Z,1.88
2023-01-30T15:14:56.007Z,1.91
2023-01-30T15:20:22.033Z,1.80
2023-01-30T15:30:30.466Z,1.77
2023-01-30T15:36:02.889Z,2.00
2023-01-30T15:41:38.677Z,1.81
2023-01-30T15:46:59.505Z,2.59
2023-01-30T15:52:42.848Z,2.36
2023-01-30T15:58:05.692Z,2.18
2023-01-30T16:03:26.535Z,2.28
2023-01-30T16:08:51.534Z,2.67
2023-01-30T16:14:17.232Z,2.60
2023-01-30T16:19:42.292Z,3.07
2023-01-30T16:25:03.987Z,2.80
2023-01-30T16:30:31.459Z,2.91
2023-01-30T16:35:49.575Z,3.79
2023-01-30T16:41:10.525Z,2.92
2023-01-30T16:46:46.619Z,3.03
2023-01-30T16:52:10.069Z,2.93
2023-01-30T16:57:42.475Z,2.86
2023-01-30T17:03:06.368Z,2.64
2023-01-30T17:08:34.911Z,2.63
2023-01-30T17:14:05.497Z,3.10
2023-01-30T17:20:11.935Z,3.40
2023-01-30T17:25:34.876Z,2.81
2023-01-30T17:31:00.812Z,3.01
2023-01-30T17:36:24.381Z,3.16
2023-01-30T17:41:44.667Z,2.83
2023-01-30T17:47:06.486Z,2.87
2023-01-30T17:53:09.038Z,3.12
2023-01-30T17:58:29.393Z,3.06
2023-01-30T18:03:52.992Z,3.15
2023-01-30T18:09:15.131Z,3.97
2023-01-30T18:14:41.633Z,4.92
2023-01-30T18:20:04.422Z,5.96
2023-01-30T18:25:27.545Z,5.01
2023-01-30T18:30:51.955Z,4.88
2023-01-30T18:36:11.136Z,3.60
2023-01-30T18:41:32.062Z,3.03
2023-01-30T18:46:56.687Z,3.19
2023-01-30T18:52:17.909Z,3.39
2023-01-30T18:57:41.607Z,3.60
2023-01-30T19:03:06.638Z,3.68
2023-01-30T19:08:31.646Z,3.63
2023-01-30T19:13:57.533Z,4.36
2023-01-30T19:19:22.549Z,3.63
2023-01-30T19:24:47.977Z,4.26
2023-01-30T19:30:26.891Z,5.83
2023-01-30T19:35:45.709Z,5.21
2023-01-30T19:41:10.982Z,5.30
2023-01-30T19:46:35.108Z,5.21
2023-01-30T19:51:59.302Z,4.87
2023-01-30T19:57:24.068Z,5.95
2023-01-30T20:03:13.565Z,7.36
2023-01-30T20:08:37.345Z,7.27
2023-01-30T20:14:00.460Z,5.91
2023-01-30T20:19:25.307Z,7.55
2023-01-30T20:24:53.742Z,7.62
2023-01-30T20:30:16.333Z,7.95
2023-01-30T20:35:59.683Z,7.05
2023-01-30T20:41:20.495Z,5.37
2023-01-30T20:46:42.198Z,6.01
2023-01-30T20:52:24.057Z,6.23
2023-01-30T20:57:48.041Z,5.96
2023-01-30T21:03:12.868Z,6.68
2023-01-30T21:08:37.101Z,6.25
2023-01-30T21:14:02.168Z,5.64
2023-01-30T21:19:26.406Z,6.44
2023-01-30T21:24:53.423Z,5.59
2023-01-30T21:30:29.537Z,5.90
2023-01-30T21:35:52.917Z,6.36
2023-01-30T21:41:20.002Z,5.81
2023-01-30T21:46:38.299Z,5.29
2023-01-30T21:52:01.307Z,6.11
2023-01-30T21:57:25.039Z,5.48
2023-01-30T22:02:49.053Z,6.29
2023-01-30T22:08:12.554Z,6.30
2023-01-30T22:13:34.283Z,5.52
2023-01-30T22:18:57.799Z,5.12
2023-01-30T22:24:39.658Z,5.60
2023-01-30T22:29:59.008Z,5.27
2023-01-30T22:35:26.222Z,5.17
2023-01-30T22:40:51.164Z,4.98
2023-01-30T22:46:21.595Z,5.02
2023-01-30T22:51:43.738Z,4.39
2023-01-30T22:57:31.204Z,5.68
2023-01-30T23:03:19.157Z,5.50
2023-01-30T23:08:41.701Z,6.18
2023-01-30T23:14:06.550Z,4.53
2023-01-30T23:19:31.224Z,4.88
2023-01-30T23:24:53.283Z,4.66
2023-01-30T23:30:14.804Z,4.93
2023-01-30T23:36:04.758Z,4.99
2023-01-30T23:41:25.982Z,5.02
2023-01-30T23:46:50.378Z,5.17
2023-01-30T23:52:13.496Z,5.69
2023-01-30T23:57:38.607Z,5.04
